Impacts TAF Board
For situational awareness. Not to be used for flight planning purposes.
IDs:

KSLC - Salt Lake City Intl, UT, US

Issued at 1125 UTC 17 Dec 2018
Updated at 1138 UTC 17 Dec 2018
Potential Impact None Slight Moderate High
Time1054Z 17/12Z 17/13Z 17/14Z 17/15Z 17/16Z 17/17Z 17/18Z 17/19Z 17/20Z 17/21Z 17/22Z 17/23Z 18/00Z>>
Type OBS PRVL PRVL PRVL PRVL PRVL PRVL PRVL PRVL PRVL PRVL PRVL PRVL PRVL
VIS 10 >6 >6 >6 >6 >6 >6 >6 >6 >6 >6 >6 >6 >6
CIG -- 200 200 200 200 200 200 200 120 120 120 80 80 80
Cover SCT BKN BKN BKN BKN BKN BKN BKN OVC OVC OVC OVC OVC OVC
FltCat VFR VFR VFR VFR VFR VFR VFR VFR VFR VFR VFR VFR VFR VFR
WX -- -- -- -- -- -- -- -- -- -- -- VCSH VCSH VCSH
WDir 270 150 150 150 150 150 150 150 340 340 340 280 280 280
WSpd 4 4 4 4 4 4 4 4 4 4 4 5 5 5
WGst -- -- -- -- -- -- -- -- -- -- -- -- -- --
Raw TAF
KSLC 171125Z 1712/1818 15004KT P6SM BKN200
  FM171900 34004KT P6SM SCT100 OVC120
  FM172200 28005KT P6SM VCSH SCT050 OVC080
  FM180100 17004KT P6SM BKN050


Raw METAR
KSLC 171054Z 27004KT 10SM FEW150 SCT200 M02/M03 A3013 RMK AO2 SLP209 T10171028 $
KSLC 170954Z 20004KT 10SM FEW150 SCT200 M02/M03 A3015 RMK AO2 SLP205 T10221028 $
KSLC 170854Z 29004KT 10SM FEW150 SCT200 M02/M03 A3015 RMK AO2 SLP205 T10171028 $

METAR Board
Radar Display
Forecast Discussion
For situational awareness. Not to be used for flight planning purposes.